createdAt,value
2023-03-23T00:01:11.548Z,4.03
2023-03-23T00:03:38.695Z,2.05
2023-03-23T00:06:08.274Z,2.70
2023-03-23T00:08:38.844Z,3.53
2023-03-23T00:11:06.381Z,4.57
2023-03-23T00:13:34.145Z,2.70
2023-03-23T00:16:04.365Z,4.28
2023-03-23T00:18:31.334Z,5.00
2023-03-23T00:20:58.519Z,3.92
2023-03-23T00:23:27.184Z,2.90
2023-03-23T00:25:59.426Z,3.47
2023-03-23T00:28:27.686Z,4.78
2023-03-23T00:31:07.233Z,5.03
2023-03-23T00:33:42.037Z,3.05
2023-03-23T00:36:10.195Z,2.97
2023-03-23T00:38:37.477Z,2.25
2023-03-23T00:41:05.112Z,2.83
2023-03-23T00:43:32.774Z,3.50
2023-03-23T00:46:09.616Z,3.40
2023-03-23T00:48:41.987Z,4.18
2023-03-23T00:51:12.977Z,2.15
2023-03-23T00:53:40.794Z,2.10
2023-03-23T00:56:09.003Z,2.72
2023-03-23T00:58:36.599Z,2.75
2023-03-23T01:01:04.261Z,5.70
2023-03-23T01:03:31.514Z,3.53
2023-03-23T01:05:59.753Z,4.03
2023-03-23T01:08:26.676Z,6.30
2023-03-23T01:11:03.850Z,2.65
2023-03-23T01:13:32.111Z,5.22
2023-03-23T01:15:59.052Z,4.70
2023-03-23T01:18:33.912Z,3.90
2023-03-23T01:21:08.581Z,4.25
2023-03-23T01:23:35.785Z,3.97
2023-03-23T01:26:11.010Z,4.78
2023-03-23T01:28:38.430Z,3.28
2023-03-23T01:31:14.292Z,4.65
2023-03-23T01:33:42.318Z,2.47
2023-03-23T01:36:16.668Z,3.08
2023-03-23T01:38:45.883Z,4.63
2023-03-23T01:41:13.284Z,2.85
2023-03-23T01:44:07.810Z,3.58
2023-03-23T01:46:40.660Z,7.53
2023-03-23T01:49:10.950Z,4.30
2023-03-23T01:51:50.127Z,2.22
2023-03-23T01:54:21.293Z,3.95
2023-03-23T01:56:53.764Z,5.97
2023-03-23T01:59:21.226Z,4.22
2023-03-23T02:01:55.323Z,3.92
2023-03-23T02:04:24.760Z,3.40
2023-03-23T02:06:52.936Z,3.55
2023-03-23T02:09:23.522Z,5.07
2023-03-23T02:11:53.822Z,3.80
2023-03-23T02:14:22.224Z,5.07
2023-03-23T02:17:10.202Z,2.95
2023-03-23T02:19:43.356Z,4.03
2023-03-23T02:22:10.203Z,4.88
2023-03-23T02:24:52.790Z,5.65
2023-03-23T02:28:05.614Z,4.18
2023-03-23T02:30:41.564Z,3.05
2023-03-23T02:33:18.420Z,3.78
2023-03-23T02:35:49.838Z,3.67
2023-03-23T02:38:21.383Z,2.40
2023-03-23T02:40:50.352Z,4.85
2023-03-23T02:43:22.853Z,2.97
2023-03-23T02:46:02.818Z,3.17
2023-03-23T02:48:32.006Z,4.78
2023-03-23T02:51:01.681Z,2.38
2023-03-23T02:53:30.223Z,3.42
2023-03-23T02:55:58.605Z,3.00
2023-03-23T02:58:29.471Z,2.50
2023-03-23T03:00:57.672Z,4.32
2023-03-23T03:03:28.475Z,3.35
2023-03-23T03:06:20.702Z,3.33
2023-03-23T03:09:04.402Z,3.78
2023-03-23T03:11:32.776Z,4.40
2023-03-23T03:14:05.019Z,3.30
2023-03-23T03:16:47.293Z,2.53
2023-03-23T03:19:20.738Z,2.40
2023-03-23T03:21:49.860Z,3.78
2023-03-23T03:24:23.465Z,1.90
2023-03-23T03:26:53.378Z,2.00
2023-03-23T03:29:28.798Z,5.15
2023-03-23T03:31:57.980Z,3.97
2023-03-23T03:34:26.767Z,2.42
2023-03-23T03:36:56.178Z,2.42
2023-03-23T03:39:23.465Z,3.47
2023-03-23T03:41:50.282Z,3.80
2023-03-23T03:44:17.457Z,3.85
2023-03-23T03:46:44.982Z,5.32
2023-03-23T03:49:16.404Z,3.40
2023-03-23T03:51:43.651Z,5.93
2023-03-23T03:54:18.261Z,4.40
2023-03-23T03:56:46.882Z,2.60
2023-03-23T03:59:34.165Z,5.15
2023-03-23T04:02:16.133Z,2.78
2023-03-23T04:04:44.453Z,3.08
2023-03-23T04:07:12.205Z,3.35
2023-03-23T04:09:39.560Z,4.45
2023-03-23T04:12:06.962Z,4.47
2023-03-23T04:15:06.231Z,4.25
2023-03-23T04:17:37.152Z,2.58
2023-03-23T04:20:15.113Z,4.50
2023-03-23T04:22:44.810Z,3.28
2023-03-23T04:25:13.739Z,2.92
2023-03-23T04:27:44.664Z,3.42
2023-03-23T04:30:14.122Z,3.75
2023-03-23T04:32:47.468Z,2.80
2023-03-23T04:35:21.015Z,8.15
2023-03-23T04:37:54.074Z,3.95
2023-03-23T04:40:22.318Z,4.63
2023-03-23T04:43:06.578Z,3.22
2023-03-23T04:46:03.644Z,3.60
2023-03-23T04:48:34.369Z,3.22
2023-03-23T04:51:09.019Z,4.65
2023-03-23T04:53:37.466Z,4.03
2023-03-23T04:56:04.601Z,2.58
2023-03-23T04:58:38.396Z,3.97
2023-03-23T05:01:22.592Z,8.95
2023-03-23T05:04:01.475Z,7.28
2023-03-23T05:06:28.926Z,4.15
2023-03-23T05:09:01.980Z,5.15
2023-03-23T05:11:29.645Z,5.68
2023-03-23T05:13:56.599Z,4.32
2023-03-23T05:16:23.718Z,4.10
2023-03-23T05:18:50.568Z,4.13
2023-03-23T05:21:18.737Z,4.28
2023-03-23T05:23:55.998Z,4.68
2023-03-23T05:26:31.297Z,3.63
2023-03-23T05:29:05.073Z,6.07
2023-03-23T05:31:41.597Z,2.78
2023-03-23T05:34:08.404Z,3.45
2023-03-23T05:36:41.329Z,3.22
2023-03-23T05:39:15.861Z,7.15
2023-03-23T05:42:05.445Z,5.68
2023-03-23T05:44:43.943Z,2.63
2023-03-23T05:47:11.922Z,3.25
2023-03-23T05:49:42.454Z,2.80
2023-03-23T05:52:11.986Z,4.25
2023-03-23T05:54:38.827Z,7.00
2023-03-23T05:57:06.874Z,2.95
2023-03-23T05:59:43.078Z,4.78
2023-03-23T06:02:15.650Z,5.78
2023-03-23T06:04:42.728Z,3.03
2023-03-23T06:07:19.419Z,5.45
2023-03-23T06:09:55.063Z,3.30
2023-03-23T06:12:37.100Z,4.38
2023-03-23T06:15:18.970Z,3.45
2023-03-23T06:18:02.049Z,3.17
2023-03-23T06:20:40.337Z,4.18
2023-03-23T06:23:22.157Z,10.18
2023-03-23T06:25:49.244Z,5.60
2023-03-23T06:28:31.896Z,4.28
2023-03-23T06:31:03.520Z,3.33
2023-03-23T06:33:30.465Z,3.10
2023-03-23T06:36:06.485Z,4.18
2023-03-23T06:38:45.998Z,3.72
2023-03-23T06:41:14.397Z,4.63
2023-03-23T06:43:41.509Z,3.50
2023-03-23T06:46:18.632Z,4.50
2023-03-23T06:49:06.323Z,6.03
2023-03-23T06:51:44.566Z,7.10
2023-03-23T06:54:12.610Z,2.88
2023-03-23T06:56:41.757Z,2.97
2023-03-23T06:59:11.420Z,4.72
2023-03-23T07:01:39.655Z,2.88
2023-03-23T07:04:06.692Z,5.35
2023-03-23T07:06:53.322Z,4.97
2023-03-23T07:09:22.446Z,4.68
2023-03-23T07:11:52.943Z,4.35
2023-03-23T07:14:29.870Z,7.22
2023-03-23T07:16:57.260Z,4.38
2023-03-23T07:19:24.660Z,3.42
2023-03-23T07:21:52.154Z,5.22
2023-03-23T07:24:21.517Z,3.63
2023-03-23T07:27:11.777Z,5.65
2023-03-23T07:29:40.091Z,5.63
2023-03-23T07:32:13.439Z,6.03
2023-03-23T07:34:41.805Z,5.00
2023-03-23T07:37:25.926Z,3.72
2023-03-23T07:39:53.065Z,3.58
2023-03-23T07:42:20.443Z,3.10
2023-03-23T07:44:51.712Z,4.47
2023-03-23T07:47:19.500Z,3.28
2023-03-23T07:50:01.530Z,6.15
2023-03-23T07:52:36.240Z,6.72
2023-03-23T07:55:04.849Z,3.40
2023-03-23T07:57:52.572Z,4.80
2023-03-23T08:00:21.377Z,6.90
2023-03-23T08:02:49.974Z,3.88
2023-03-23T08:05:40.159Z,4.53
2023-03-23T08:08:16.085Z,4.25
2023-03-23T08:10:43.103Z,5.15
2023-03-23T08:13:34.641Z,6.20
2023-03-23T08:16:14.581Z,6.65
2023-03-23T08:19:08.505Z,4.82
2023-03-23T08:21:36.323Z,6.05
2023-03-23T08:24:06.599Z,5.68
2023-03-23T08:26:46.655Z,6.97
2023-03-23T08:29:25.967Z,6.50
2023-03-23T08:32:14.263Z,3.85
2023-03-23T08:34:54.073Z,6.50
2023-03-23T08:37:36.647Z,5.97
2023-03-23T08:40:28.121Z,6.35
2023-03-23T08:43:12.257Z,4.40
2023-03-23T08:46:10.817Z,3.95
2023-03-23T08:49:00.813Z,3.45
2023-03-23T08:51:46.229Z,4.60
2023-03-23T08:54:32.510Z,4.85
2023-03-23T08:57:19.549Z,4.25
2023-03-23T09:00:01.289Z,4.53
2023-03-23T09:02:37.555Z,3.00
2023-03-23T09:05:14.698Z,3.50
2023-03-23T09:08:05.210Z,3.88
2023-03-23T09:10:32.033Z,5.25
2023-03-23T09:12:58.965Z,3.22
2023-03-23T09:17:55.327Z,3.10
2023-03-23T09:20:25.086Z,2.88
2023-03-23T09:22:54.020Z,4.28
2023-03-23T09:25:25.709Z,2.80
2023-03-23T09:27:57.596Z,4.90
2023-03-23T09:30:27.660Z,3.38
2023-03-23T09:32:55.327Z,3.08
2023-03-23T09:35:23.030Z,2.65
2023-03-23T09:37:51.658Z,3.33
2023-03-23T09:40:28.744Z,2.75
2023-03-23T09:43:23.797Z,3.05
2023-03-23T09:46:07.263Z,3.40
2023-03-23T09:48:44.759Z,4.45
2023-03-23T09:51:41.725Z,2.50
2023-03-23T09:54:41.111Z,3.40
2023-03-23T09:57:21.545Z,2.90
2023-03-23T10:00:05.798Z,5.20
2023-03-23T10:02:46.656Z,3.15
2023-03-23T10:05:20.977Z,2.63
2023-03-23T10:07:47.840Z,1.85
2023-03-23T10:10:15.324Z,2.22
2023-03-23T10:12:51.578Z,3.67
2023-03-23T10:15:22.302Z,2.05
2023-03-23T10:18:08.206Z,1.75
2023-03-23T10:20:41.956Z,2.13
2023-03-23T10:23:21.295Z,2.20
2023-03-23T10:26:05.465Z,3.03
2023-03-23T10:28:40.075Z,2.53
2023-03-23T10:31:11.481Z,2.20
2023-03-23T10:33:43.935Z,2.08
2023-03-23T10:36:33.563Z,3.42
2023-03-23T10:39:28.911Z,2.22
2023-03-23T10:41:55.822Z,2.40
2023-03-23T10:44:26.706Z,3.13
2023-03-23T10:47:04.375Z,1.52
2023-03-23T10:49:42.223Z,3.10
2023-03-23T10:52:12.400Z,2.33
2023-03-23T10:54:47.803Z,2.20
2023-03-23T10:57:23.591Z,2.55
2023-03-23T10:59:50.620Z,2.83
2023-03-23T11:02:29.306Z,4.10
2023-03-23T11:05:05.177Z,1.77
2023-03-23T11:07:36.605Z,2.85
2023-03-23T11:10:17.675Z,2.97
2023-03-23T11:12:46.586Z,2.08
2023-03-23T11:15:28.571Z,3.88
2023-03-23T11:18:01.455Z,2.50
2023-03-23T11:20:30.689Z,2.70
2023-03-23T11:22:59.512Z,2.92
2023-03-23T11:25:27.800Z,2.75
2023-03-23T11:27:55.147Z,2.55
2023-03-23T11:30:25.785Z,3.90
2023-03-23T11:32:53.764Z,2.42
2023-03-23T11:35:30.047Z,2.10
2023-03-23T11:38:00.354Z,2.85
2023-03-23T11:40:47.638Z,2.53
2023-03-23T11:43:20.230Z,2.38
2023-03-23T11:46:07.454Z,3.78
2023-03-23T11:48:59.382Z,2.90
2023-03-23T11:51:42.556Z,2.13
2023-03-23T11:54:28.418Z,4.38
2023-03-23T11:56:56.365Z,1.98
2023-03-23T11:59:38.112Z,2.28
2023-03-23T12:02:17.299Z,1.90
2023-03-23T12:04:54.139Z,3.33
2023-03-23T12:07:39.759Z,8.05
2023-03-23T12:10:30.313Z,4.75
2023-03-23T12:13:16.000Z,3.20
2023-03-23T12:15:49.587Z,4.32
2023-03-23T12:18:44.827Z,1.90
2023-03-23T12:21:35.904Z,2.83
2023-03-23T12:24:17.918Z,2.78
2023-03-23T12:26:59.321Z,6.35
2023-03-23T12:29:54.290Z,3.22
2023-03-23T12:32:49.228Z,2.70
2023-03-23T12:35:33.098Z,2.20
2023-03-23T12:38:13.650Z,2.28
2023-03-23T12:40:46.757Z,3.03
2023-03-23T12:43:16.588Z,3.35
2023-03-23T12:46:05.107Z,1.83
2023-03-23T12:48:41.272Z,2.28
2023-03-23T12:51:25.885Z,3.70
2023-03-23T12:54:08.826Z,3.92
2023-03-23T12:57:08.726Z,2.05
2023-03-23T12:59:53.628Z,2.67
2023-03-23T13:02:29.537Z,2.25
2023-03-23T13:05:05.487Z,3.03
2023-03-23T13:07:48.660Z,1.98
2023-03-23T13:10:38.642Z,2.38
2023-03-23T13:13:05.884Z,2.13
2023-03-23T13:16:08.800Z,3.35
2023-03-23T13:19:05.873Z,3.50
2023-03-23T13:21:35.841Z,3.05
2023-03-23T13:24:06.260Z,3.42
2023-03-23T13:26:39.024Z,3.40
2023-03-23T13:29:18.458Z,2.08
2023-03-23T13:31:46.254Z,1.38
2023-03-23T13:34:25.978Z,1.77
2023-03-23T13:36:58.722Z,2.75
2023-03-23T13:39:29.468Z,4.68
2023-03-23T13:42:05.534Z,2.67
2023-03-23T13:44:50.520Z,4.88
2023-03-23T13:47:29.602Z,2.05
2023-03-23T13:50:27.764Z,5.60
2023-03-23T13:52:58.015Z,2.50
2023-03-23T13:55:41.209Z,4.75
2023-03-23T13:58:08.040Z,2.53
2023-03-23T14:00:39.436Z,3.22
2023-03-23T14:03:15.551Z,2.90
2023-03-23T14:05:45.395Z,2.38
2023-03-23T14:08:18.235Z,3.38
2023-03-23T14:11:11.380Z,3.78
2023-03-23T14:13:56.864Z,2.58
2023-03-23T14:16:36.877Z,4.57
2023-03-23T14:19:06.391Z,2.15
2023-03-23T14:21:36.176Z,5.38
2023-03-23T14:24:16.481Z,2.53
2023-03-23T14:26:44.365Z,3.15
2023-03-23T14:29:14.532Z,2.42
2023-03-23T14:31:42.147Z,3.47
2023-03-23T14:34:18.055Z,2.17
2023-03-23T14:36:45.046Z,4.03
2023-03-23T14:39:18.504Z,6.50
2023-03-23T14:41:45.618Z,2.65
2023-03-23T14:44:16.869Z,2.22
2023-03-23T14:46:45.194Z,3.67
2023-03-23T14:49:17.437Z,3.15
2023-03-23T14:51:55.783Z,4.28
2023-03-23T14:54:32.956Z,2.80
2023-03-23T14:57:06.954Z,4.93
2023-03-23T14:59:33.749Z,3.97
2023-03-23T15:02:03.074Z,2.53
2023-03-23T15:04:30.263Z,1.88
2023-03-23T15:07:01.578Z,2.78
2023-03-23T15:09:28.597Z,2.70
2023-03-23T15:11:58.172Z,2.72
2023-03-23T15:14:46.388Z,2.03
2023-03-23T15:17:24.004Z,2.75
2023-03-23T15:19:51.319Z,2.55
2023-03-23T15:22:24.268Z,4.72
2023-03-23T15:24:53.808Z,3.03
2023-03-23T15:27:33.373Z,3.90
2023-03-23T15:30:12.881Z,2.85
2023-03-23T15:32:41.430Z,4.20
2023-03-23T15:35:26.963Z,2.67
2023-03-23T15:38:03.544Z,4.65
2023-03-23T15:40:36.753Z,4.07
2023-03-23T15:43:55.344Z,3.10
2023-03-23T15:46:24.297Z,3.20
2023-03-23T15:49:00.176Z,2.70
2023-03-23T15:51:28.607Z,4.57
2023-03-23T15:53:58.149Z,1.17
2023-03-23T15:56:27.518Z,2.53
2023-03-23T15:58:54.622Z,1.80
2023-03-23T16:01:24.783Z,4.25
2023-03-23T16:03:54.652Z,1.83
2023-03-23T16:06:25.693Z,6.40
2023-03-23T16:08:56.752Z,2.55
2023-03-23T16:11:25.677Z,4.47
2023-03-23T16:13:53.730Z,4.53
2023-03-23T16:16:28.531Z,3.00
2023-03-23T16:18:55.804Z,2.33
2023-03-23T16:21:23.091Z,3.80
2023-03-23T16:23:50.045Z,1.13
2023-03-23T16:26:17.045Z,4.20
2023-03-23T16:28:44.004Z,4.15
2023-03-23T16:31:11.493Z,2.70
2023-03-23T16:33:38.401Z,5.18
2023-03-23T16:36:05.653Z,1.70
2023-03-23T16:38:32.735Z,5.28
2023-03-23T16:41:16.658Z,3.05
2023-03-23T16:43:43.565Z,1.08
2023-03-23T16:46:11.629Z,2.47
2023-03-23T16:48:38.520Z,3.38
2023-03-23T16:51:05.661Z,4.22
2023-03-23T16:53:32.876Z,4.95
2023-03-23T16:55:59.861Z,3.13
2023-03-23T16:58:26.752Z,2.92
2023-03-23T17:00:54.304Z,5.22
2023-03-23T17:03:22.580Z,2.83
2023-03-23T17:05:51.105Z,6.32
2023-03-23T17:08:19.485Z,4.15
2023-03-23T17:10:46.905Z,3.90
2023-03-23T17:13:14.071Z,3.35
2023-03-23T17:15:44.541Z,3.17
2023-03-23T17:18:13.703Z,2.97
2023-03-23T17:20:40.544Z,2.83
2023-03-23T17:23:07.484Z,6.25
2023-03-23T17:25:34.418Z,2.42
2023-03-23T17:28:05.596Z,3.83
2023-03-23T17:30:35.569Z,2.53
2023-03-23T17:33:02.440Z,3.17
2023-03-23T17:35:29.313Z,4.57
2023-03-23T17:37:56.196Z,5.35
2023-03-23T17:40:23.123Z,6.35
2023-03-23T17:42:49.989Z,3.33
2023-03-23T17:45:17.034Z,3.97
2023-03-23T17:47:43.939Z,2.28
2023-03-23T17:50:12.683Z,5.43
2023-03-23T17:52:40.767Z,3.83
2023-03-23T17:55:09.036Z,2.72
2023-03-23T17:57:36.166Z,7.90
2023-03-23T18:00:07.529Z,5.72
2023-03-23T18:02:35.307Z,6.45
2023-03-23T18:05:02.278Z,4.45
2023-03-23T18:07:29.282Z,3.10
2023-03-23T18:10:00.527Z,3.78
2023-03-23T18:12:27.592Z,6.65
2023-03-23T18:14:58.460Z,3.38
2023-03-23T18:17:25.969Z,2.80
2023-03-23T18:19:52.844Z,4.43
2023-03-23T18:22:19.865Z,4.85
2023-03-23T18:24:47.600Z,3.78
2023-03-23T18:27:14.505Z,3.67
2023-03-23T18:29:41.353Z,6.47
2023-03-23T18:32:08.623Z,4.40
2023-03-23T18:34:36.637Z,6.75
2023-03-23T18:37:04.083Z,3.25
2023-03-23T18:39:34.224Z,5.30
2023-03-23T18:42:02.140Z,6.07
2023-03-23T18:44:28.943Z,6.88
2023-03-23T18:46:55.817Z,3.40
2023-03-23T18:49:23.143Z,4.75
2023-03-23T18:51:50.157Z,6.07
2023-03-23T18:54:17.895Z,7.15
2023-03-23T18:56:44.973Z,7.07
2023-03-23T18:59:12.100Z,4.38
2023-03-23T19:01:39.231Z,5.22
2023-03-23T19:04:06.513Z,5.03
2023-03-23T19:06:35.216Z,7.22
2023-03-23T19:09:02.332Z,6.47
2023-03-23T19:11:29.697Z,8.85
2023-03-23T19:14:02.090Z,5.75
2023-03-23T19:16:32.724Z,7.88
2023-03-23T19:19:01.739Z,7.47
2023-03-23T19:21:31.539Z,7.82
2023-03-23T19:23:59.212Z,8.82
2023-03-23T19:26:37.750Z,5.60
2023-03-23T19:31:44.928Z,8.13
2023-03-23T19:34:13.060Z,10.10
2023-03-23T19:36:40.045Z,6.38
2023-03-23T19:39:07.822Z,5.20
2023-03-23T19:41:35.660Z,7.22
2023-03-23T19:44:04.184Z,5.40
2023-03-23T19:46:31.841Z,3.97
2023-03-23T19:48:59.219Z,5.55
2023-03-23T19:51:28.500Z,6.15
2023-03-23T19:53:58.926Z,7.32
2023-03-23T19:56:26.292Z,9.27
2023-03-23T19:58:53.120Z,9.48
2023-03-23T20:01:20.311Z,9.20
2023-03-23T20:03:47.740Z,7.13
2023-03-23T20:06:15.662Z,7.10
2023-03-23T20:08:47.876Z,9.27
2023-03-23T20:11:19.298Z,8.55
2023-03-23T20:13:48.891Z,9.70
2023-03-23T20:16:17.593Z,8.07
2023-03-23T20:18:46.180Z,7.88
2023-03-23T20:21:22.842Z,8.52
2023-03-23T20:23:52.300Z,9.52
2023-03-23T20:26:29.818Z,8.02
2023-03-23T20:28:57.028Z,7.97
2023-03-23T20:31:26.796Z,7.70
2023-03-23T20:34:02.797Z,7.80
2023-03-23T20:36:42.889Z,6.72
2023-03-23T20:39:12.847Z,8.68
2023-03-23T20:41:40.580Z,9.23
2023-03-23T20:44:14.125Z,9.07
2023-03-23T20:46:44.514Z,11.38
2023-03-23T20:49:11.567Z,13.48
2023-03-23T20:51:38.713Z,14.80
2023-03-23T20:54:06.654Z,10.68
2023-03-23T20:56:34.487Z,14.88
2023-03-23T20:59:02.165Z,14.38
2023-03-23T21:01:29.019Z,12.18
2023-03-23T21:03:57.177Z,9.55
2023-03-23T21:06:28.586Z,10.73
2023-03-23T21:08:56.384Z,9.52
2023-03-23T21:11:24.818Z,7.60
2023-03-23T21:13:52.224Z,12.05
2023-03-23T21:16:19.294Z,8.13
2023-03-23T21:18:47.915Z,6.15
2023-03-23T21:21:18.541Z,9.23
2023-03-23T21:23:53.139Z,8.43
2023-03-23T21:26:26.589Z,7.85
2023-03-23T21:28:54.350Z,10.50
2023-03-23T21:31:23.554Z,6.70
2023-03-23T21:33:50.713Z,7.30
2023-03-23T21:36:17.518Z,8.23
2023-03-23T21:38:44.860Z,8.38
2023-03-23T21:41:13.914Z,11.32
2023-03-23T21:43:41.327Z,8.70
2023-03-23T21:46:09.726Z,6.72
2023-03-23T21:48:38.867Z,8.48
2023-03-23T21:51:07.401Z,7.28
2023-03-23T21:53:37.138Z,7.95
2023-03-23T21:56:05.831Z,10.50
2023-03-23T21:58:33.277Z,6.70
2023-03-23T22:01:01.349Z,6.85
2023-03-23T22:03:32.459Z,6.97
2023-03-23T22:06:05.861Z,8.52
2023-03-23T22:08:33.218Z,6.47
2023-03-23T22:11:05.992Z,9.98
2023-03-23T22:13:34.854Z,10.68
2023-03-23T22:16:03.693Z,8.25
2023-03-23T22:18:30.815Z,9.98
2023-03-23T22:20:59.249Z,11.70
2023-03-23T22:23:27.066Z,10.45
2023-03-23T22:25:54.577Z,11.10
2023-03-23T22:28:21.344Z,10.80
2023-03-23T22:30:48.118Z,9.82
2023-03-23T22:33:15.001Z,10.25
2023-03-23T22:35:42.006Z,8.82
2023-03-23T22:38:08.797Z,11.15
2023-03-23T22:40:35.604Z,9.20
2023-03-23T22:43:03.812Z,12.43
2023-03-23T22:45:31.727Z,10.70
2023-03-23T22:47:59.995Z,8.65
2023-03-23T22:50:27.941Z,9.45
2023-03-23T22:52:54.804Z,8.82
2023-03-23T22:55:21.830Z,9.10
2023-03-23T22:57:48.767Z,7.85
2023-03-23T23:00:15.868Z,8.90
2023-03-23T23:02:43.131Z,10.27
2023-03-23T23:05:11.107Z,7.45
2023-03-23T23:07:38.788Z,9.00
2023-03-23T23:10:06.454Z,7.22
2023-03-23T23:12:35.376Z,7.70
2023-03-23T23:15:07.178Z,9.55
2023-03-23T23:17:35.089Z,8.00
2023-03-23T23:20:05.854Z,7.35
2023-03-23T23:22:33.074Z,7.45
2023-03-23T23:25:00.408Z,8.63
2023-03-23T23:27:27.225Z,9.77
2023-03-23T23:29:54.124Z,6.38
2023-03-23T23:32:20.935Z,6.95
2023-03-23T23:34:48.681Z,8.93
2023-03-23T23:37:15.712Z,8.30
2023-03-23T23:39:42.743Z,9.43
2023-03-23T23:42:09.950Z,7.78
2023-03-23T23:44:37.356Z,8.90
2023-03-23T23:47:05.124Z,5.78
2023-03-23T23:49:34.381Z,6.35
2023-03-23T23:52:02.563Z,6.97
2023-03-23T23:54:32.285Z,7.50
2023-03-23T23:57:00.520Z,6.45
2023-03-23T23:59:27.427Z,4.45
